KMOP/MOP METAR and TAF weather

Enter ICAO airport designator
Station Type Date Time Source
KMOP METAR 2019/06/17 14:35 UTC NOAA

KMOP 171435Z AUTO 11005KT 10SM OVC023 16/11 A3003 RMK AO2 T01630106


Station Type Date Time Source
KMOP Decoded METAR 2019/06/17 14:35 UTC NOAA

Mount Pleasant, Mount Pleasant Municipal Airport, MI, United States (KMOP) 43-37N 84-44W
Jun 17, 2019 - 10:35 AM EDT / 2019.06.17 1435 UTC
Wind: from the ESE (110 degrees) at 6 MPH (5 KT):0
Visibility: 10 mile(s):0
Sky conditions: overcast
Temperature: 61.3 F (16.3 C)
Dew Point: 51.1 F (10.6 C)
Relative Humidity: 68%
Pressure (altimeter): 30.03 in. Hg (1016 hPa)
ob: KMOP 171435Z AUTO 11005KT 10SM OVC023 16/11 A3003 RMK AO2 T01630106
cycle: 14

Station Type Date Time Source
KMOP TAF UTC NOAA

Error!

Example: see airport list